Time;durP1;ratioP1;P1;durP2;ratioP2;P2;SDS_P1;SDS_P2;PMS_P1;PMS_P2;Temp;Humidity;BMP_temperature;BMP_pressure;BME280_temperature;BME280_humidity;BME280_pressure;Samples;Min_cycle;Max_cycle;Signal;HPM_P1;HPM_P2
2023/02/25 00:02:21;;;;;;;29.83;5.07;;;;;;;;;;5026523;28;20470;-70
2023/02/25 00:04:46;;;;;;;30.40;3.50;;;;;;;;;;5027973;28;20256;-70
2023/02/25 00:07:11;;;;;;;38.47;3.83;;;;;;;;;;5029324;28;20406;-70
2023/02/25 00:09:36;;;;;;;23.67;3.67;;;;;;;;;;5030748;28;20257;-70
2023/02/25 00:12:02;;;;;;;34.08;5.97;;;;;;;;;;5024757;28;20029;-70
2023/02/25 00:14:27;;;;;;;24.30;3.47;;;;;;;;;;5028042;28;20021;-70
2023/02/25 00:16:54;;;;;;;22.20;3.40;;;;;;;;;;5018981;28;20115;-70
2023/02/25 00:19:20;;;;;;;22.00;3.30;;;;;;;;;;5026787;28;20028;-70
2023/02/25 00:21:45;;;;;;;31.23;4.15;;;;;;;;;;5026992;28;20486;-70
2023/02/25 00:24:10;;;;;;;28.63;3.47;;;;;;;;;;5022803;28;20473;-70
2023/02/25 00:26:35;;;;;;;28.00;3.88;;;;;;;;;;5022344;28;20268;-70
2023/02/25 00:29:01;;;;;;;26.02;3.75;;;;;;;;;;5018414;28;20084;-70
2023/02/25 00:31:26;;;;;;;26.88;4.82;;;;;;;;;;5021096;28;20017;-70
2023/02/25 00:33:51;;;;;;;24.20;4.00;;;;;;;;;;5027368;28;20017;-70
2023/02/25 00:36:19;;;;;;;18.63;5.10;;;;;;;;;;5026528;28;20032;-70
2023/02/25 00:38:47;;;;;;;34.13;6.18;;;;;;;;;;5028325;28;20018;-70
2023/02/25 00:41:12;;;;;;;30.13;3.70;;;;;;;;;;5026651;28;20021;-70
2023/02/25 00:43:39;;;;;;;28.83;3.95;;;;;;;;;;5030022;28;20407;-70
2023/02/25 00:46:04;;;;;;;27.15;3.88;;;;;;;;;;5022164;28;20105;-70
2023/02/25 00:48:29;;;;;;;33.55;3.88;;;;;;;;;;5027761;28;20096;-70
2023/02/25 00:50:55;;;;;;;33.23;4.07;;;;;;;;;;5022982;28;20021;-70
2023/02/25 00:53:20;;;;;;;24.27;4.03;;;;;;;;;;5023768;28;20807;-70
2023/02/25 00:55:45;;;;;;;26.37;4.27;;;;;;;;;;5028851;28;20148;-70
2023/02/25 00:58:10;;;;;;;27.07;3.20;;;;;;;;;;5025004;28;20285;-70
2023/02/25 01:00:35;;;;;;;30.60;3.60;;;;;;;;;;5026150;28;20323;-70
2023/02/25 01:03:00;;;;;;;19.40;3.70;;;;;;;;;;5024735;28;20056;-70
2023/02/25 01:05:26;;;;;;;33.30;5.47;;;;;;;;;;5018675;28;20256;-70
2023/02/25 01:07:51;;;;;;;29.88;4.50;;;;;;;;;;5026755;28;20462;-70
2023/02/25 01:10:16;;;;;;;28.60;4.53;;;;;;;;;;5029921;28;20360;-70
2023/02/25 01:12:41;;;;;;;22.33;3.30;;;;;;;;;;5027985;28;20498;-70
2023/02/25 01:15:07;;;;;;;26.33;3.50;;;;;;;;;;5020455;28;20112;-70
2023/02/25 01:17:32;;;;;;;24.00;3.25;;;;;;;;;;5022044;28;20296;-70
2023/02/25 01:19:57;;;;;;;23.58;3.78;;;;;;;;;;5025173;28;20026;-70
2023/02/25 01:22:23;;;;;;;24.00;3.70;;;;;;;;;;5029239;28;20026;-70
2023/02/25 01:24:48;;;;;;;27.85;4.05;;;;;;;;;;5030090;28;20039;-70
2023/02/25 01:27:13;;;;;;;21.55;2.50;;;;;;;;;;5025816;28;20045;-70
2023/02/25 01:29:39;;;;;;;13.88;2.47;;;;;;;;;;5030504;28;20115;-70
2023/02/25 01:32:07;;;;;;;25.02;3.38;;;;;;;;;;5022443;28;20087;-70
2023/02/25 01:34:32;;;;;;;16.77;2.85;;;;;;;;;;5027588;28;20834;-70
2023/02/25 01:36:57;;;;;;;26.75;3.13;;;;;;;;;;5026772;28;20037;-70
2023/02/25 01:39:24;;;;;;;19.17;2.90;;;;;;;;;;5032001;28;20076;-70
2023/02/25 01:41:52;;;;;;;18.08;2.92;;;;;;;;;;5033108;28;20107;-70
2023/02/25 01:44:19;;;;;;;26.02;3.03;;;;;;;;;;5032142;28;20093;-70
2023/02/25 01:46:46;;;;;;;20.70;3.15;;;;;;;;;;5027642;28;20026;-70
2023/02/25 01:49:13;;;;;;;21.15;3.70;;;;;;;;;;5028596;28;20018;-70
2023/02/25 01:51:39;;;;;;;22.02;4.28;;;;;;;;;;5028351;28;20025;-70
2023/02/25 01:54:06;;;;;;;19.63;3.10;;;;;;;;;;5030279;28;20496;-70
2023/02/25 01:56:32;;;;;;;22.45;3.50;;;;;;;;;;5033320;28;20367;-70
2023/02/25 01:58:58;;;;;;;17.63;3.92;;;;;;;;;;5032303;28;20029;-70
2023/02/25 02:01:24;;;;;;;23.25;3.42;;;;;;;;;;5019761;28;20038;-70
2023/02/25 02:03:50;;;;;;;18.85;2.63;;;;;;;;;;5030895;28;20522;-70
2023/02/25 02:06:17;;;;;;;14.10;2.17;;;;;;;;;;5028670;28;20120;-70
2023/02/25 02:08:43;;;;;;;27.77;3.33;;;;;;;;;;5025155;28;20020;-70
2023/02/25 02:11:08;;;;;;;20.85;3.30;;;;;;;;;;5029422;28;20063;-70
2023/02/25 02:13:35;;;;;;;33.17;4.50;;;;;;;;;;5032188;28;20520;-70
2023/02/25 02:16:09;;;;;;;26.25;2.95;;;;;;;;;;5029075;28;20268;-70
2023/02/25 02:18:35;;;;;;;19.98;2.95;;;;;;;;;;5031081;28;20017;-70
2023/02/25 02:21:10;;;;;;;28.55;3.92;;;;;;;;;;5023130;28;20025;-70
2023/02/25 02:23:47;;;;;;;16.05;2.65;;;;;;;;;;5027182;28;20167;-70
2023/02/25 02:26:39;;;;;;;24.02;4.05;;;;;;;;;;5028440;28;20036;-70
2023/02/25 02:29:04;;;;;;;18.05;3.67;;;;;;;;;;5019125;28;20044;-70
2023/02/25 02:31:52;;;;;;;34.00;3.25;;;;;;;;;;5030699;28;20018;-70
2023/02/25 02:34:37;;;;;;;18.08;3.40;;;;;;;;;;5005737;28;20033;-70
2023/02/25 02:37:20;;;;;;;12.32;2.67;;;;;;;;;;5026180;28;20049;-70
2023/02/25 02:39:52;;;;;;;24.08;3.45;;;;;;;;;;5028857;28;20029;-70
2023/02/25 02:42:17;;;;;;;28.35;4.78;;;;;;;;;;5026037;28;20062;-70
2023/02/25 02:44:57;;;;;;;20.75;2.53;;;;;;;;;;5025662;28;20088;-70
2023/02/25 02:47:26;;;;;;;17.95;3.70;;;;;;;;;;5025316;28;20014;-70
2023/02/25 02:49:58;;;;;;;22.15;2.75;;;;;;;;;;5026129;28;20115;-70
2023/02/25 02:52:25;;;;;;;23.65;3.05;;;;;;;;;;5030838;28;20013;-70
2023/02/25 02:54:53;;;;;;;23.23;2.75;;;;;;;;;;5025154;28;20083;-70
2023/02/25 02:57:20;;;;;;;25.85;2.72;;;;;;;;;;5027173;28;20025;-70
2023/02/25 02:59:56;;;;;;;26.45;3.25;;;;;;;;;;5031492;28;20013;-70
2023/02/25 03:02:33;;;;;;;22.45;3.40;;;;;;;;;;5031693;28;20028;-70
2023/02/25 03:05:01;;;;;;;19.23;2.97;;;;;;;;;;5026209;28;20165;-69
2023/02/25 03:07:26;;;;;;;17.55;2.88;;;;;;;;;;5030236;28;20022;-69
2023/02/25 03:09:53;;;;;;;33.30;3.58;;;;;;;;;;5026227;28;20363;-69
2023/02/25 03:12:18;;;;;;;24.33;3.60;;;;;;;;;;5023614;28;20630;-69
2023/02/25 03:14:43;;;;;;;23.75;5.18;;;;;;;;;;5027781;28;20048;-69
2023/02/25 03:17:23;;;;;;;26.58;4.97;;;;;;;;;;5027953;28;20024;-69
2023/02/25 03:20:05;;;;;;;15.68;2.55;;;;;;;;;;5018738;28;20033;-69
2023/02/25 03:22:33;;;;;;;25.38;4.13;;;;;;;;;;5023611;28;20026;-69
2023/02/25 03:25:08;;;;;;;28.40;5.07;;;;;;;;;;5029226;28;20079;-69
2023/02/25 03:27:38;;;;;;;16.75;3.08;;;;;;;;;;5024958;28;20040;-68
2023/02/25 03:30:11;;;;;;;18.50;2.58;;;;;;;;;;5018738;28;20018;-70
2023/02/25 03:32:39;;;;;;;16.95;2.40;;;;;;;;;;5024692;28;20021;-69
2023/02/25 03:35:08;;;;;;;29.38;3.83;;;;;;;;;;5031176;28;20037;-69
2023/02/25 03:37:36;;;;;;;27.90;3.40;;;;;;;;;;5029510;28;20017;-69
2023/02/25 03:40:12;;;;;;;14.63;3.20;;;;;;;;;;5029605;28;20040;-69
2023/02/25 03:42:40;;;;;;;16.77;4.05;;;;;;;;;;5018874;28;20455;-69
2023/02/25 03:45:07;;;;;;;30.02;2.85;;;;;;;;;;5027054;28;20029;-68
2023/02/25 03:47:34;;;;;;;20.60;3.90;;;;;;;;;;5026885;28;20140;-69
2023/02/25 03:50:11;;;;;;;15.95;2.60;;;;;;;;;;5029812;28;20083;-69
2023/02/25 03:52:37;;;;;;;26.10;3.00;;;;;;;;;;5025609;28;20025;-69
2023/02/25 03:55:03;;;;;;;20.70;3.72;;;;;;;;;;5025681;28;20026;-69
2023/02/25 03:57:37;;;;;;;27.40;3.67;;;;;;;;;;5021829;28;20402;-68
2023/02/25 04:00:14;;;;;;;13.52;2.78;;;;;;;;;;5029676;28;20083;-69
2023/02/25 04:02:39;;;;;;;23.08;2.65;;;;;;;;;;5024327;28;20486;-69
2023/02/25 04:05:05;;;;;;;25.30;2.97;;;;;;;;;;5022337;28;20018;-69
2023/02/25 04:07:30;;;;;;;31.40;3.15;;;;;;;;;;5025548;28;20040;-69
2023/02/25 04:09:55;;;;;;;22.80;2.90;;;;;;;;;;5021842;28;20017;-69
2023/02/25 04:12:20;;;;;;;25.30;3.35;;;;;;;;;;5027427;28;21982;-69
2023/02/25 04:14:45;;;;;;;19.87;3.80;;;;;;;;;;5026380;28;20509;-69
2023/02/25 04:17:10;;;;;;;23.93;3.73;;;;;;;;;;5028802;28;20275;-69
2023/02/25 04:19:35;;;;;;;22.20;3.37;;;;;;;;;;5023073;28;20367;-69
2023/02/25 04:22:01;;;;;;;25.42;3.58;;;;;;;;;;5019201;28;20280;-69
2023/02/25 04:24:26;;;;;;;21.75;2.90;;;;;;;;;;5020675;28;20585;-69
2023/02/25 04:26:57;;;;;;;17.17;2.80;;;;;;;;;;5025034;28;20041;-69
2023/02/25 04:29:22;;;;;;;27.25;3.58;;;;;;;;;;5030300;28;20268;-69
2023/02/25 04:31:47;;;;;;;16.75;3.72;;;;;;;;;;5021000;28;20097;-69
2023/02/25 04:34:12;;;;;;;25.37;2.80;;;;;;;;;;5016666;28;20101;-69
2023/02/25 04:36:37;;;;;;;27.77;3.97;;;;;;;;;;5018368;28;20331;-69
2023/02/25 04:39:03;;;;;;;23.27;3.20;;;;;;;;;;5029975;28;20027;-69
2023/02/25 04:41:30;;;;;;;23.33;2.90;;;;;;;;;;5025576;28;20268;-69
2023/02/25 04:43:55;;;;;;;31.67;3.53;;;;;;;;;;5028567;28;20025;-69
2023/02/25 04:46:20;;;;;;;16.80;2.30;;;;;;;;;;5027234;28;20013;-69
2023/02/25 04:48:46;;;;;;;25.27;3.30;;;;;;;;;;5022996;28;20056;-69
2023/02/25 04:51:11;;;;;;;27.65;2.75;;;;;;;;;;5020817;28;20272;-69
2023/02/25 04:53:36;;;;;;;26.50;2.67;;;;;;;;;;5028204;28;20382;-69
2023/02/25 04:56:03;;;;;;;26.95;3.35;;;;;;;;;;5025962;28;20060;-69
2023/02/25 04:58:28;;;;;;;18.98;2.22;;;;;;;;;;5025511;28;20029;-69
2023/02/25 05:00:56;;;;;;;14.07;3.23;;;;;;;;;;5027303;28;20029;-69
2023/02/25 05:03:22;;;;;;;23.50;3.72;;;;;;;;;;5023126;28;20751;-69
2023/02/25 05:05:47;;;;;;;20.75;3.20;;;;;;;;;;5018779;28;20088;-69
2023/02/25 05:08:12;;;;;;;35.33;6.53;;;;;;;;;;5025084;28;20017;-69
2023/02/25 05:10:37;;;;;;;35.10;3.20;;;;;;;;;;5029162;28;20017;-69
2023/02/25 05:13:02;;;;;;;19.90;3.27;;;;;;;;;;5024031;28;20156;-69
2023/02/25 05:15:27;;;;;;;23.15;3.92;;;;;;;;;;5021383;28;20765;-69
2023/02/25 05:17:53;;;;;;;20.45;2.92;;;;;;;;;;5018742;28;20040;-69
2023/02/25 05:20:18;;;;;;;36.63;4.68;;;;;;;;;;5030215;28;20025;-69
2023/02/25 05:22:43;;;;;;;41.95;6.63;;;;;;;;;;5028671;28;20029;-69
2023/02/25 05:25:09;;;;;;;12.40;3.10;;;;;;;;;;5029968;28;20024;-69
2023/02/25 05:27:34;;;;;;;27.05;3.92;;;;;;;;;;5026337;28;20017;-69
2023/02/25 05:29:59;;;;;;;20.65;2.95;;;;;;;;;;5014933;28;20014;-69
2023/02/25 05:32:24;;;;;;;25.50;2.65;;;;;;;;;;5020558;28;20417;-69
2023/02/25 05:34:50;;;;;;;19.23;2.23;;;;;;;;;;5028493;28;20014;-69
2023/02/25 05:37:15;;;;;;;26.93;3.83;;;;;;;;;;5029354;28;20760;-69
2023/02/25 05:39:40;;;;;;;32.65;3.25;;;;;;;;;;5027605;28;20379;-69
2023/02/25 05:42:05;;;;;;;23.40;2.40;;;;;;;;;;5022795;28;20029;-70
2023/02/25 05:44:31;;;;;;;20.42;2.50;;;;;;;;;;5014188;28;20340;-69
2023/02/25 05:46:56;;;;;;;32.13;3.83;;;;;;;;;;5027268;28;20104;-69
2023/02/25 05:49:21;;;;;;;30.27;3.60;;;;;;;;;;5014621;28;20113;-69
2023/02/25 05:51:47;;;;;;;28.15;3.10;;;;;;;;;;5024637;28;20025;-68
2023/02/25 05:54:12;;;;;;;24.38;2.95;;;;;;;;;;5020959;28;20037;-69
2023/02/25 05:56:38;;;;;;;17.38;3.10;;;;;;;;;;5021052;28;20091;-69
2023/02/25 05:59:03;;;;;;;26.77;2.93;;;;;;;;;;5016478;28;20025;-69
2023/02/25 06:01:30;;;;;;;18.92;2.55;;;;;;;;;;5019895;28;20280;-69
2023/02/25 06:03:57;;;;;;;35.00;3.35;;;;;;;;;;5023604;28;20017;-69
2023/02/25 06:06:23;;;;;;;26.08;4.28;;;;;;;;;;5022794;28;20017;-69
2023/02/25 06:08:48;;;;;;;25.98;4.68;;;;;;;;;;5022633;28;20101;-69
2023/02/25 06:11:16;;;;;;;18.83;2.92;;;;;;;;;;5015982;28;20017;-69
2023/02/25 06:13:41;;;;;;;27.92;3.67;;;;;;;;;;5017900;28;20155;-69
2023/02/25 06:16:07;;;;;;;27.02;3.33;;;;;;;;;;5025652;28;20105;-69
2023/02/25 06:18:35;;;;;;;17.73;2.45;;;;;;;;;;5024173;28;20079;-69
2023/02/25 06:21:05;;;;;;;32.17;3.53;;;;;;;;;;5021024;28;20018;-69
2023/02/25 06:23:31;;;;;;;18.52;2.83;;;;;;;;;;5020940;28;20022;-69
2023/02/25 06:25:57;;;;;;;35.60;3.90;;;;;;;;;;5026459;28;20033;-68
2023/02/25 06:28:22;;;;;;;26.88;4.40;;;;;;;;;;5024620;28;20034;-69
2023/02/25 06:30:47;;;;;;;24.67;2.92;;;;;;;;;;5028262;28;20018;-69
2023/02/25 06:33:13;;;;;;;28.17;4.47;;;;;;;;;;5021018;28;20434;-69
2023/02/25 06:35:38;;;;;;;20.98;2.58;;;;;;;;;;5026962;28;20280;-69
2023/02/25 06:38:03;;;;;;;28.00;3.77;;;;;;;;;;5019547;28;20030;-69
2023/02/25 06:40:28;;;;;;;28.80;3.28;;;;;;;;;;5023347;28;20334;-68
2023/02/25 06:42:53;;;;;;;18.05;2.45;;;;;;;;;;5021837;28;20040;-69
2023/02/25 06:45:18;;;;;;;37.90;5.33;;;;;;;;;;5020932;28;20026;-69
2023/02/25 06:47:44;;;;;;;22.45;4.07;;;;;;;;;;5020910;28;20280;-69
2023/02/25 06:50:09;;;;;;;17.67;2.75;;;;;;;;;;5023462;28;20096;-69
2023/02/25 06:52:34;;;;;;;33.22;2.95;;;;;;;;;;5029478;28;20057;-69
2023/02/25 06:54:59;;;;;;;21.73;3.33;;;;;;;;;;5026382;28;20087;-69
2023/02/25 06:57:25;;;;;;;26.20;4.10;;;;;;;;;;5026975;28;20041;-69
2023/02/25 06:59:52;;;;;;;28.97;3.60;;;;;;;;;;5021401;28;20026;-69
2023/02/25 07:02:17;;;;;;;21.58;2.78;;;;;;;;;;5023146;28;20284;-69
2023/02/25 07:04:42;;;;;;;24.88;4.25;;;;;;;;;;5021273;28;20037;-69
2023/02/25 07:07:07;;;;;;;25.17;2.92;;;;;;;;;;5022752;28;20437;-70
2023/02/25 07:09:32;;;;;;;17.10;2.90;;;;;;;;;;5017510;28;20268;-70
2023/02/25 07:11:58;;;;;;;20.17;2.03;;;;;;;;;;5026799;28;20668;-70
2023/02/25 07:14:23;;;;;;;32.85;4.85;;;;;;;;;;5026034;28;20383;-70
2023/02/25 07:16:48;;;;;;;24.75;3.42;;;;;;;;;;5026698;28;20045;-70
2023/02/25 07:19:15;;;;;;;18.40;3.28;;;;;;;;;;5023336;28;20502;-70
2023/02/25 07:21:41;;;;;;;29.05;3.72;;;;;;;;;;5024236;28;20053;-70
2023/02/25 07:24:06;;;;;;;33.80;4.43;;;;;;;;;;5027107;28;20103;-70
2023/02/25 07:26:31;;;;;;;19.35;2.85;;;;;;;;;;5025470;28;20025;-69
2023/02/25 07:28:57;;;;;;;37.05;3.25;;;;;;;;;;5022479;28;20079;-69
2023/02/25 07:31:23;;;;;;;40.45;4.45;;;;;;;;;;5028891;28;20374;-70
2023/02/25 07:33:48;;;;;;;33.55;3.38;;;;;;;;;;5022948;28;20057;-70
2023/02/25 07:36:13;;;;;;;26.95;3.80;;;;;;;;;;5024901;28;20040;-70
2023/02/25 07:38:39;;;;;;;28.60;3.38;;;;;;;;;;5017995;28;20569;-70
2023/02/25 07:41:08;;;;;;;29.30;3.60;;;;;;;;;;5027940;28;20022;-70
2023/02/25 07:43:33;;;;;;;26.90;3.90;;;;;;;;;;5018827;28;20048;-71
2023/02/25 07:45:59;;;;;;;20.45;4.68;;;;;;;;;;5025461;28;20387;-70
2023/02/25 07:48:24;;;;;;;28.20;2.95;;;;;;;;;;5025516;28;20063;-70
2023/02/25 07:50:49;;;;;;;20.65;2.90;;;;;;;;;;5025769;28;20072;-70
2023/02/25 07:53:14;;;;;;;34.23;4.30;;;;;;;;;;5022808;28;20490;-70
2023/02/25 07:55:45;;;;;;;21.13;3.03;;;;;;;;;;5024649;28;20415;-70
2023/02/25 07:58:11;;;;;;;26.15;3.85;;;;;;;;;;5023459;28;20784;-70
2023/02/25 08:00:37;;;;;;;27.45;3.88;;;;;;;;;;5020091;28;20030;-70
2023/02/25 08:03:03;;;;;;;24.15;3.05;;;;;;;;;;5026258;28;20183;-70
2023/02/25 08:05:28;;;;;;;30.92;4.82;;;;;;;;;;5026822;28;20022;-70
2023/02/25 08:07:54;;;;;;;27.08;4.50;;;;;;;;;;5025233;28;20788;-70
2023/02/25 08:10:19;;;;;;;26.67;3.93;;;;;;;;;;5021662;28;20052;-70
2023/02/25 08:12:44;;;;;;;17.07;3.67;;;;;;;;;;5025802;28;20361;-70
2023/02/25 08:15:09;;;;;;;35.73;5.83;;;;;;;;;;5014071;28;20698;-70
2023/02/25 08:17:35;;;;;;;24.67;3.67;;;;;;;;;;5022079;28;20276;-70
2023/02/25 08:20:00;;;;;;;25.10;5.03;;;;;;;;;;5019649;28;20021;-70
2023/02/25 08:22:25;;;;;;;23.63;2.97;;;;;;;;;;5022424;28;20164;-70
2023/02/25 08:24:50;;;;;;;34.93;4.30;;;;;;;;;;5026427;28;20279;-70
2023/02/25 08:27:15;;;;;;;25.58;4.00;;;;;;;;;;5026239;28;20303;-70
2023/02/25 08:29:40;;;;;;;35.63;4.95;;;;;;;;;;5019484;28;20018;-70
2023/02/25 08:32:06;;;;;;;21.37;4.53;;;;;;;;;;5027864;28;20030;-70
2023/02/25 08:34:31;;;;;;;28.48;4.13;;;;;;;;;;5028592;28;20279;-70
2023/02/25 08:36:58;;;;;;;24.40;5.00;;;;;;;;;;5024922;28;20017;-70
2023/02/25 08:39:23;;;;;;;24.17;3.60;;;;;;;;;;5012103;28;20022;-70
2023/02/25 08:41:48;;;;;;;25.08;5.05;;;;;;;;;;5023127;28;20032;-70
2023/02/25 08:44:13;;;;;;;33.50;5.30;;;;;;;;;;5023404;28;20079;-70
2023/02/25 08:46:39;;;;;;;28.25;4.28;;;;;;;;;;5018795;28;20029;-70
2023/02/25 08:49:05;;;;;;;31.13;5.70;;;;;;;;;;5023422;28;20025;-70
2023/02/25 08:51:34;;;;;;;31.75;4.97;;;;;;;;;;5026074;28;20533;-70
2023/02/25 08:54:01;;;;;;;23.40;3.95;;;;;;;;;;5021377;28;20033;-69
2023/02/25 08:56:26;;;;;;;23.52;4.10;;;;;;;;;;5019899;28;20028;-70
2023/02/25 08:58:52;;;;;;;23.05;3.53;;;;;;;;;;5025389;28;20097;-70
2023/02/25 09:01:17;;;;;;;25.50;3.95;;;;;;;;;;5016017;28;20025;-70
2023/02/25 09:03:51;;;;;;;28.73;4.00;;;;;;;;;;5020933;28;20352;-70
2023/02/25 09:06:16;;;;;;;29.90;5.07;;;;;;;;;;5015103;28;20018;-70
2023/02/25 09:08:41;;;;;;;24.63;3.92;;;;;;;;;;5020792;28;20099;-70
2023/02/25 09:11:07;;;;;;;31.90;4.07;;;;;;;;;;5024120;28;20009;-70
2023/02/25 09:13:32;;;;;;;26.40;3.45;;;;;;;;;;5020488;28;20498;-70
2023/02/25 09:15:57;;;;;;;30.95;3.55;;;;;;;;;;5025281;28;20044;-70
2023/02/25 09:18:23;;;;;;;29.30;4.47;;;;;;;;;;5015774;28;20113;-70
2023/02/25 09:20:49;;;;;;;37.42;4.97;;;;;;;;;;5022142;28;20022;-70
2023/02/25 09:23:14;;;;;;;20.83;3.78;;;;;;;;;;5017728;28;20032;-70
2023/02/25 09:25:39;;;;;;;25.08;4.50;;;;;;;;;;5021470;28;20022;-70
2023/02/25 09:28:06;;;;;;;23.33;4.97;;;;;;;;;;5011493;28;20014;-69
2023/02/25 09:30:32;;;;;;;28.88;6.75;;;;;;;;;;5018959;28;20056;-69
2023/02/25 09:32:57;;;;;;;28.83;5.73;;;;;;;;;;5018623;28;20057;-70
2023/02/25 09:35:22;;;;;;;27.80;6.50;;;;;;;;;;5024798;28;20272;-70
2023/02/25 09:37:47;;;;;;;29.83;6.83;;;;;;;;;;5025616;28;20288;-70
2023/02/25 09:40:16;;;;;;;36.00;8.75;;;;;;;;;;5024568;28;20321;-70
2023/02/25 09:43:02;;;;;;;33.45;7.93;;;;;;;;;;5026122;28;20399;-70
2023/02/25 09:45:30;;;;;;;30.90;7.93;;;;;;;;;;5023395;28;20395;-70
2023/02/25 09:48:14;;;;;;;31.52;7.65;;;;;;;;;;5022821;28;20017;-70
2023/02/25 09:50:41;;;;;;;33.70;9.25;;;;;;;;;;5028905;28;20022;-70
2023/02/25 09:53:14;;;;;;;35.47;10.70;;;;;;;;;;5026568;28;20026;-70
2023/02/25 09:55:40;;;;;;;24.05;8.07;;;;;;;;;;5017751;28;20387;-70
2023/02/25 09:58:05;;;;;;;41.03;10.65;;;;;;;;;;5026573;28;20017;-70
2023/02/25 10:00:33;;;;;;;29.92;8.60;;;;;;;;;;5017799;28;20018;-70
2023/02/25 10:03:03;;;;;;;40.40;10.60;;;;;;;;;;5029760;28;20099;-70
2023/02/25 10:05:29;;;;;;;32.35;9.27;;;;;;;;;;5028094;28;20022;-70
2023/02/25 10:07:55;;;;;;;24.77;7.93;;;;;;;;;;5029507;28;20118;-70
2023/02/25 10:10:33;;;;;;;24.77;7.05;;;;;;;;;;5027319;28;20021;-70
2023/02/25 10:12:58;;;;;;;25.55;7.90;;;;;;;;;;5029065;28;20517;-70
2023/02/25 10:15:23;;;;;;;15.70;6.43;;;;;;;;;;5025561;28;20030;-71
2023/02/25 10:18:01;;;;;;;27.17;6.90;;;;;;;;;;5026857;28;20283;-71
2023/02/25 10:20:45;;;;;;;22.08;6.43;;;;;;;;;;5027401;28;20029;-71
2023/02/25 10:23:22;;;;;;;26.58;7.82;;;;;;;;;;5029867;28;20029;-71
2023/02/25 10:25:55;;;;;;;24.65;8.05;;;;;;;;;;5025058;28;20021;-71
2023/02/25 10:28:21;;;;;;;23.90;7.45;;;;;;;;;;5026443;28;20124;-71
2023/02/25 10:30:59;;;;;;;20.52;6.45;;;;;;;;;;5026670;28;20040;-71
2023/02/25 10:33:26;;;;;;;18.80;6.40;;;;;;;;;;5025371;28;20036;-71
2023/02/25 10:36:02;;;;;;;33.33;7.53;;;;;;;;;;5029271;28;20030;-71
2023/02/25 10:38:27;;;;;;;26.60;6.18;;;;;;;;;;5027143;28;20390;-71
2023/02/25 10:40:54;;;;;;;22.73;6.47;;;;;;;;;;5027045;28;20028;-71
2023/02/25 10:43:21;;;;;;;25.55;3.90;;;;;;;;;;5021541;28;20033;-71
2023/02/25 10:45:49;;;;;;;19.30;6.85;;;;;;;;;;5029706;28;20029;-69
2023/02/25 10:48:17;;;;;;;17.90;3.85;;;;;;;;;;5025765;28;20064;-70
2023/02/25 10:50:42;;;;;;;15.18;3.17;;;;;;;;;;5022133;28;20034;-70
2023/02/25 10:53:12;;;;;;;13.87;2.80;;;;;;;;;;5026294;28;20032;-69
2023/02/25 10:55:40;;;;;;;9.70;1.70;;;;;;;;;;5026926;28;20260;-69
2023/02/25 10:58:19;;;;;;;9.05;1.02;;;;;;;;;;5024637;28;20103;-69
2023/02/25 11:00:52;;;;;;;11.52;1.35;;;;;;;;;;5026460;28;20045;-69
2023/02/25 11:03:20;;;;;;;8.93;1.48;;;;;;;;;;5027418;28;20734;-70
2023/02/25 11:05:45;;;;;;;7.85;1.95;;;;;;;;;;5017823;28;20040;-70
2023/02/25 11:08:25;;;;;;;8.38;1.30;;;;;;;;;;5027891;28;20021;-70
2023/02/25 11:11:02;;;;;;;11.70;2.58;;;;;;;;;;5027000;28;20075;-70
2023/02/25 11:13:30;;;;;;;8.85;2.20;;;;;;;;;;5025475;28;20083;-70
2023/02/25 11:15:56;;;;;;;7.60;1.40;;;;;;;;;;5030574;28;20074;-70
2023/02/25 11:18:26;;;;;;;12.98;1.58;;;;;;;;;;5020786;28;20073;-70
2023/02/25 11:21:06;;;;;;;7.97;1.50;;;;;;;;;;5026250;28;20025;-70
2023/02/25 11:23:33;;;;;;;6.50;1.75;;;;;;;;;;5021247;28;20479;-70
2023/02/25 11:25:58;;;;;;;7.00;1.50;;;;;;;;;;5026458;28;20014;-70
2023/02/25 11:28:44;;;;;;;11.55;1.58;;;;;;;;;;5021985;28;20495;-70
2023/02/25 11:31:11;;;;;;;5.55;1.20;;;;;;;;;;5019495;28;20766;-70
2023/02/25 11:33:39;;;;;;;3.03;0.90;;;;;;;;;;5020891;28;20080;-70
2023/02/25 11:36:05;;;;;;;9.90;2.13;;;;;;;;;;5019368;28;20022;-70
2023/02/25 11:38:38;;;;;;;4.00;1.50;;;;;;;;;;5024147;28;20029;-69
2023/02/25 11:41:12;;;;;;;8.75;1.35;;;;;;;;;;5026917;28;20021;-70
2023/02/25 11:43:38;;;;;;;7.57;1.60;;;;;;;;;;5024693;28;20068;-69
2023/02/25 11:46:10;;;;;;;12.35;2.60;;;;;;;;;;5014809;28;20035;-69
2023/02/25 11:48:46;;;;;;;5.47;1.50;;;;;;;;;;5021607;28;20389;-69
2023/02/25 11:51:18;;;;;;;6.55;1.83;;;;;;;;;;5027224;28;20045;-69
2023/02/25 11:53:55;;;;;;;8.68;1.45;;;;;;;;;;5020824;28;20040;-69
2023/02/25 11:56:27;;;;;;;6.75;1.42;;;;;;;;;;5017521;28;20022;-69
2023/02/25 11:58:58;;;;;;;7.65;1.60;;;;;;;;;;5022835;28;20030;-70
2023/02/25 12:01:23;;;;;;;5.10;1.30;;;;;;;;;;5025617;28;20633;-70
2023/02/25 12:03:56;;;;;;;3.33;1.50;;;;;;;;;;5027986;28;20076;-69
2023/02/25 12:06:33;;;;;;;5.43;1.70;;;;;;;;;;5028797;28;20014;-69
2023/02/25 12:09:07;;;;;;;4.35;1.67;;;;;;;;;;5029760;28;20371;-69
2023/02/25 12:11:32;;;;;;;4.68;2.00;;;;;;;;;;5027778;28;20021;-69
2023/02/25 12:14:07;;;;;;;4.65;1.88;;;;;;;;;;5028418;28;20745;-69
2023/02/25 12:16:32;;;;;;;7.03;2.47;;;;;;;;;;5026627;28;20256;-69
2023/02/25 12:19:16;;;;;;;9.30;2.83;;;;;;;;;;5029447;28;20593;-69
2023/02/25 12:21:48;;;;;;;10.45;2.83;;;;;;;;;;5027358;28;20287;-70
2023/02/25 12:24:23;;;;;;;5.40;2.80;;;;;;;;;;5030470;28;20096;-69
2023/02/25 12:27:07;;;;;;;6.53;2.60;;;;;;;;;;5026769;28;20021;-69
2023/02/25 12:29:38;;;;;;;8.80;2.85;;;;;;;;;;5021551;28;20034;-70
2023/02/25 12:32:07;;;;;;;6.25;2.50;;;;;;;;;;5027632;28;20044;-69
2023/02/25 12:34:38;;;;;;;10.93;2.88;;;;;;;;;;5030450;28;20392;-69
2023/02/25 12:37:09;;;;;;;8.02;2.50;;;;;;;;;;5028967;28;20022;-69
2023/02/25 12:39:53;;;;;;;5.82;1.80;;;;;;;;;;5029540;28;20032;-69
2023/02/25 12:42:27;;;;;;;12.32;2.30;;;;;;;;;;5023150;28;20482;-69
2023/02/25 12:45:08;;;;;;;5.95;1.92;;;;;;;;;;5029085;28;20136;-69
2023/02/25 12:47:46;;;;;;;10.70;2.03;;;;;;;;;;5024899;28;20025;-69
2023/02/25 12:50:20;;;;;;;7.88;1.77;;;;;;;;;;5023921;28;20010;-69
2023/02/25 12:52:51;;;;;;;11.40;2.13;;;;;;;;;;5026321;28;20123;-69
2023/02/25 12:55:34;;;;;;;13.10;2.00;;;;;;;;;;5025322;28;20037;-70
2023/02/25 12:58:18;;;;;;;7.63;1.83;;;;;;;;;;5023018;28;20033;-70
2023/02/25 13:01:05;;;;;;;8.38;1.90;;;;;;;;;;5024179;28;20025;-69
2023/02/25 13:03:42;;;;;;;9.50;1.63;;;;;;;;;;5021290;28;20088;-69
2023/02/25 13:06:19;;;;;;;8.35;1.70;;;;;;;;;;5015997;28;20064;-69
2023/02/25 13:09:03;;;;;;;11.30;1.33;;;;;;;;;;5014234;28;20072;-69
2023/02/25 13:11:47;;;;;;;5.15;1.48;;;;;;;;;;5027656;28;20378;-70
2023/02/25 13:14:15;;;;;;;10.65;1.77;;;;;;;;;;5021068;28;20429;-69
2023/02/25 13:16:51;;;;;;;11.57;1.67;;;;;;;;;;5018723;28;20386;-69
2023/02/25 13:19:16;;;;;;;14.07;1.70;;;;;;;;;;5016983;28;20029;-69
2023/02/25 13:21:41;;;;;;;12.30;1.70;;;;;;;;;;5019047;28;20648;-70
2023/02/25 13:24:10;;;;;;;6.90;1.37;;;;;;;;;;5024866;28;20267;-69
2023/02/25 13:26:59;;;;;;;11.45;1.52;;;;;;;;;;5028836;28;20272;-70
2023/02/25 13:29:24;;;;;;;15.93;2.28;;;;;;;;;;5022760;28;20022;-69
2023/02/25 13:31:55;;;;;;;7.95;1.85;;;;;;;;;;5024772;28;20036;-70
2023/02/25 13:34:23;;;;;;;8.23;1.90;;;;;;;;;;5023256;28;20349;-69
2023/02/25 13:36:48;;;;;;;8.10;2.13;;;;;;;;;;5031383;28;20020;-69
2023/02/25 13:39:25;;;;;;;6.00;1.42;;;;;;;;;;5031719;28;20018;-69
2023/02/25 13:42:07;;;;;;;8.77;1.95;;;;;;;;;;5025355;28;20433;-69
2023/02/25 13:44:40;;;;;;;17.13;2.20;;;;;;;;;;5020361;28;20025;-70
2023/02/25 13:47:08;;;;;;;6.25;1.58;;;;;;;;;;5025635;28;20029;-69
2023/02/25 13:49:52;;;;;;;16.17;1.95;;;;;;;;;;5029167;28;20510;-70
2023/02/25 13:52:25;;;;;;;10.07;1.50;;;;;;;;;;5028285;28;20395;-70
2023/02/25 13:55:10;;;;;;;12.82;2.15;;;;;;;;;;5020546;28;20112;-70
2023/02/25 13:57:38;;;;;;;9.82;1.73;;;;;;;;;;5020867;28;20556;-70
2023/02/25 14:00:22;;;;;;;16.60;2.65;;;;;;;;;;5020509;28;20027;-70
2023/02/25 14:03:06;;;;;;;17.92;3.83;;;;;;;;;;5024585;28;20025;-70
2023/02/25 14:05:50;;;;;;;15.43;2.22;;;;;;;;;;5017229;28;20104;-69
2023/02/25 14:08:22;;;;;;;12.52;1.65;;;;;;;;;;5027969;28;20032;-69
2023/02/25 14:11:06;;;;;;;4.82;1.45;;;;;;;;;;5022404;28;20200;-69
2023/02/25 14:13:45;;;;;;;9.05;1.63;;;;;;;;;;5022664;28;20033;-70
2023/02/25 14:16:14;;;;;;;11.82;1.48;;;;;;;;;;5018479;28;20032;-69
2023/02/25 14:18:57;;;;;;;8.52;1.58;;;;;;;;;;5022623;28;20026;-69
2023/02/25 14:21:25;;;;;;;10.45;1.70;;;;;;;;;;5022410;28;20034;-70
2023/02/25 14:24:03;;;;;;;9.25;1.90;;;;;;;;;;5025214;28;20053;-70
2023/02/25 14:26:40;;;;;;;15.27;3.50;;;;;;;;;;5022398;28;20026;-70
2023/02/25 14:29:11;;;;;;;16.63;1.88;;;;;;;;;;5028677;28;20021;-70
2023/02/25 14:31:56;;;;;;;5.20;1.90;;;;;;;;;;5020829;28;20537;-70
2023/02/25 14:34:27;;;;;;;10.60;2.08;;;;;;;;;;5017283;28;20120;-70
2023/02/25 14:37:03;;;;;;;7.38;1.70;;;;;;;;;;5025978;28;20030;-70
2023/02/25 14:39:28;;;;;;;6.03;1.30;;;;;;;;;;5028647;28;20055;-70
2023/02/25 14:42:01;;;;;;;11.68;2.25;;;;;;;;;;5027010;28;20053;-70